Time;durP1;ratioP1;P1;durP2;ratioP2;P2;SDS_P1;SDS_P2;PMS_P1;PMS_P2;Temp;Humidity;BMP_temperature;BMP_pressure;BME280_temperature;BME280_humidity;BME280_pressure;Samples;Min_cycle;Max_cycle;Signal;HPM_P1;HPM_P2
2022/05/02 00:01:03;;;;;;;12.05;8.93;;;;;;;7.14;100.00;99187.50;5024958;28;20075;-78
2022/05/02 00:03:31;;;;;;;13.65;10.02;;;;;;;7.17;100.00;99192.56;5026543;28;20060;-78
2022/05/02 00:05:58;;;;;;;18.13;10.63;;;;;;;7.11;100.00;99177.00;5031401;28;20061;-78
2022/05/02 00:08:24;;;;;;;15.77;10.50;;;;;;;7.08;100.00;99162.78;5024572;28;20512;-77
2022/05/02 00:10:51;;;;;;;15.05;10.98;;;;;;;7.22;100.00;99177.53;5032105;28;20053;-78
2022/05/02 00:13:23;;;;;;;13.73;10.25;;;;;;;7.07;100.00;99179.16;5029714;28;20052;-78
2022/05/02 00:15:50;;;;;;;16.35;9.52;;;;;;;7.17;100.00;99177.19;5031084;28;20133;-78
2022/05/02 00:18:17;;;;;;;13.32;9.40;;;;;;;7.20;100.00;99173.31;5031784;28;20056;-78
2022/05/02 00:20:45;;;;;;;14.73;8.88;;;;;;;7.16;100.00;99175.47;5030422;28;20045;-78
2022/05/02 00:23:12;;;;;;;12.18;9.23;;;;;;;7.05;100.00;99152.28;5026334;28;20061;-78
2022/05/02 00:25:39;;;;;;;12.80;8.77;;;;;;;6.91;100.00;99153.75;5025921;28;20050;-78
2022/05/02 00:28:06;;;;;;;12.63;8.95;;;;;;;6.98;100.00;99162.06;5024513;28;20049;-78
2022/05/02 00:30:33;;;;;;;14.35;10.05;;;;;;;6.82;100.00;99148.47;5030149;28;20717;-78
2022/05/02 00:32:59;;;;;;;12.18;8.93;;;;;;;6.94;100.00;99176.06;5029580;28;20406;-78
2022/05/02 00:35:26;;;;;;;10.48;7.93;;;;;;;6.87;100.00;99165.06;5029660;28;20045;-78
2022/05/02 00:37:54;;;;;;;11.65;8.77;;;;;;;6.79;100.00;99165.88;5032172;28;20045;-78
2022/05/02 00:40:21;;;;;;;12.77;8.50;;;;;;;6.76;100.00;99155.38;5022384;28;20049;-78
2022/05/02 00:42:48;;;;;;;11.63;8.93;;;;;;;6.70;100.00;99148.75;5020329;28;20046;-78
2022/05/02 00:45:16;;;;;;;12.20;8.80;;;;;;;6.66;100.00;99162.75;5028763;28;20056;-78
2022/05/02 00:47:50;;;;;;;9.65;7.28;;;;;;;6.63;100.00;99149.56;5032231;28;20068;-78
2022/05/02 00:50:16;;;;;;;14.30;9.48;;;;;;;6.57;100.00;99147.50;5029918;28;20085;-78
2022/05/02 00:52:43;;;;;;;12.30;8.00;;;;;;;6.69;100.00;99154.31;5030908;28;20056;-78
2022/05/02 00:55:11;;;;;;;13.70;9.32;;;;;;;6.63;100.00;99157.66;5024142;28;20077;-78
2022/05/02 00:57:37;;;;;;;10.55;8.07;;;;;;;6.53;100.00;99153.22;5030243;28;20147;-78
2022/05/02 01:00:05;;;;;;;12.80;8.40;;;;;;;6.53;100.00;99155.94;5021549;28;20045;-78
2022/05/02 01:02:32;;;;;;;13.07;8.57;;;;;;;6.54;100.00;99154.91;5031425;28;20413;-78
2022/05/02 01:04:58;;;;;;;11.52;7.60;;;;;;;6.40;100.00;99136.59;5029204;28;20417;-78
2022/05/02 01:07:24;;;;;;;12.02;8.27;;;;;;;6.60;100.00;99156.13;5019829;28;20058;-78
2022/05/02 01:09:52;;;;;;;11.10;8.05;;;;;;;6.52;100.00;99147.97;5023452;28;20053;-78
2022/05/02 01:12:21;;;;;;;13.75;9.57;;;;;;;6.57;100.00;99126.72;5028425;28;20050;-78
2022/05/02 01:14:49;;;;;;;12.43;9.07;;;;;;;6.45;100.00;99138.81;5029209;28;20496;-78
2022/05/02 01:17:17;;;;;;;11.43;8.20;;;;;;;6.39;100.00;99129.50;5024925;28;20416;-78
2022/05/02 01:19:43;;;;;;;13.60;9.35;;;;;;;6.45;100.00;99136.13;5031652;28;20061;-78
2022/05/02 01:22:11;;;;;;;13.82;8.85;;;;;;;6.40;100.00;99119.53;5025154;28;20045;-78
2022/05/02 01:24:39;;;;;;;14.10;9.38;;;;;;;6.56;100.00;99135.84;5031251;28;20061;-78
2022/05/02 01:27:07;;;;;;;14.88;9.15;;;;;;;6.62;100.00;99118.16;5023864;28;20052;-78
2022/05/02 01:29:35;;;;;;;14.45;8.75;;;;;;;6.64;100.00;99129.63;5030528;28;20055;-78
2022/05/02 01:32:06;;;;;;;13.57;8.38;;;;;;;6.76;100.00;99124.78;5022919;28;20057;-78
2022/05/02 01:34:33;;;;;;;13.10;8.68;;;;;;;6.69;100.00;99117.34;5024412;28;20057;-78
2022/05/02 01:36:59;;;;;;;12.57;9.02;;;;;;;6.55;100.00;99099.03;5027340;28;20428;-78
2022/05/02 01:39:28;;;;;;;11.93;7.93;;;;;;;6.60;100.00;99122.88;5026472;28;20054;-78
2022/05/02 01:41:55;;;;;;;12.80;9.23;;;;;;;6.61;100.00;99130.81;5018233;28;20049;-78
2022/05/02 01:44:21;;;;;;;15.07;8.68;;;;;;;6.62;100.00;99115.44;5031122;28;20177;-78
2022/05/02 01:46:48;;;;;;;12.38;8.73;;;;;;;6.61;100.00;99101.09;5022247;28;20056;-76
2022/05/02 01:49:14;;;;;;;13.82;9.45;;;;;;;6.61;100.00;99119.13;5031080;28;20057;-78
2022/05/02 01:51:41;;;;;;;13.75;9.45;;;;;;;6.63;100.00;99112.59;5027256;28;20049;-77
2022/05/02 01:54:07;;;;;;;14.98;10.07;;;;;;;6.69;100.00;99117.34;5022486;28;20050;-78
2022/05/02 01:56:36;;;;;;;14.32;10.40;;;;;;;6.85;100.00;99118.41;5031099;28;20053;-78
2022/05/02 01:59:03;;;;;;;12.60;9.48;;;;;;;6.81;100.00;99104.41;5020412;28;20054;-78
2022/05/02 02:01:29;;;;;;;16.67;10.25;;;;;;;6.95;100.00;99113.72;5020138;28;20045;-78
2022/05/02 02:03:56;;;;;;;15.73;9.88;;;;;;;6.88;100.00;99120.78;5028065;28;20053;-78
2022/05/02 02:06:22;;;;;;;14.82;10.05;;;;;;;6.98;100.00;99109.88;5024101;28;20049;-78
2022/05/02 02:08:50;;;;;;;14.32;9.95;;;;;;;6.94;100.00;99114.75;5030729;28;20045;-78
2022/05/02 02:11:16;;;;;;;14.07;10.07;;;;;;;6.88;100.00;99093.78;5019239;28;20077;-78
2022/05/02 02:13:45;;;;;;;15.75;9.82;;;;;;;6.92;100.00;99111.34;5024676;28;20053;-78
2022/05/02 02:16:13;;;;;;;13.48;9.80;;;;;;;6.88;100.00;99096.47;5015343;28;20050;-78
2022/05/02 02:18:41;;;;;;;13.07;9.90;;;;;;;6.88;100.00;99078.41;5029740;28;20057;-78
2022/05/02 02:21:09;;;;;;;14.32;10.00;;;;;;;7.13;100.00;99115.50;5027740;28;20053;-78
2022/05/02 02:23:37;;;;;;;13.98;9.77;;;;;;;6.90;100.00;99102.56;5029945;28;20046;-78
2022/05/02 02:26:05;;;;;;;14.18;9.32;;;;;;;6.86;100.00;99096.63;5023097;28;20061;-78
2022/05/02 02:28:32;;;;;;;14.18;10.60;;;;;;;6.83;100.00;99090.72;5030511;28;20054;-78
2022/05/02 02:31:00;;;;;;;12.00;8.52;;;;;;;6.86;100.00;99083.13;5022851;28;20069;-78
2022/05/02 02:33:27;;;;;;;12.55;9.32;;;;;;;6.93;100.00;99088.75;5029710;28;20103;-78
2022/05/02 02:35:54;;;;;;;16.80;9.38;;;;;;;7.01;100.00;99101.44;5026735;28;20472;-78
2022/05/02 02:38:20;;;;;;;13.38;10.02;;;;;;;7.16;100.00;99102.47;5030190;28;20053;-78
2022/05/02 02:40:46;;;;;;;14.43;10.00;;;;;;;7.22;100.00;99101.00;5020270;28;20043;-78
2022/05/02 02:43:13;;;;;;;13.60;9.88;;;;;;;7.03;100.00;99075.06;5011103;28;20053;-78
2022/05/02 02:45:40;;;;;;;15.60;10.07;;;;;;;7.04;100.00;99079.47;5024687;28;20417;-78
2022/05/02 02:48:08;;;;;;;17.25;10.32;;;;;;;7.02;100.00;99082.34;5030732;28;20147;-77
2022/05/02 02:50:35;;;;;;;14.00;9.73;;;;;;;7.02;100.00;99073.41;5024933;28;20050;-78
2022/05/02 02:53:02;;;;;;;12.98;9.15;;;;;;;7.17;100.00;99090.66;5021349;28;20046;-78
2022/05/02 02:55:28;;;;;;;17.50;9.95;;;;;;;7.20;100.00;99087.63;5019736;28;20053;-78
2022/05/02 02:57:55;;;;;;;14.52;9.70;;;;;;;7.24;100.00;99080.03;5023265;28;20046;-78
2022/05/02 03:00:22;;;;;;;11.95;9.38;;;;;;;7.21;100.00;99083.06;5028121;28;20049;-78
2022/05/02 03:02:49;;;;;;;13.27;9.95;;;;;;;7.14;100.00;99080.19;5022136;28;20085;-78
2022/05/02 03:08:02;;;;;;;12.13;8.85;;;;;;;7.25;100.00;99082.56;5023143;28;20060;-78
2022/05/02 03:10:29;;;;;;;12.75;9.15;;;;;;;7.26;100.00;99064.50;5029479;28;20113;-78
2022/05/02 03:12:56;;;;;;;12.45;9.73;;;;;;;7.22;100.00;99076.66;5022363;28;20053;-78
2022/05/02 03:15:22;;;;;;;17.10;10.35;;;;;;;7.20;100.00;99073.28;5021674;28;20045;-78
2022/05/02 03:17:49;;;;;;;12.95;9.80;;;;;;;7.14;100.00;99052.31;5022203;28;20056;-78
2022/05/02 03:20:17;;;;;;;13.05;10.10;;;;;;;7.23;100.00;99056.72;5032973;28;20057;-78
2022/05/02 03:22:44;;;;;;;15.73;10.15;;;;;;;7.19;100.00;99039.97;5029288;28;20045;-78
2022/05/02 03:25:10;;;;;;;14.05;10.65;;;;;;;7.31;100.00;99058.59;5030979;28;20125;-78
2022/05/02 03:27:37;;;;;;;13.20;10.23;;;;;;;7.30;100.00;99060.47;5027191;28;20050;-78
2022/05/02 03:30:04;;;;;;;15.85;10.77;;;;;;;7.36;100.00;99048.97;5029482;28;20180;-78
2022/05/02 03:32:30;;;;;;;12.60;9.52;;;;;;;7.38;100.00;99060.47;5025014;28;20041;-78
2022/05/02 03:34:57;;;;;;;15.57;10.68;;;;;;;7.42;100.00;99066.38;5026007;28;20398;-78
2022/05/02 03:37:24;;;;;;;12.18;9.52;;;;;;;7.35;100.00;99059.97;5032458;28;20068;-78
2022/05/02 03:39:51;;;;;;;13.70;9.80;;;;;;;7.21;100.00;99069.53;5030673;28;20080;-78
2022/05/02 03:42:17;;;;;;;11.98;9.10;;;;;;;7.17;100.00;99066.34;5032454;28;20053;-78
2022/05/02 03:44:44;;;;;;;17.10;10.07;;;;;;;7.02;100.00;99036.41;5030291;28;20053;-78
2022/05/02 03:47:10;;;;;;;15.15;9.18;;;;;;;7.17;100.00;99062.78;5033074;28;20049;-78
2022/05/02 03:49:37;;;;;;;11.77;9.15;;;;;;;7.06;100.00;99051.28;5025588;28;20132;-78
2022/05/02 03:52:05;;;;;;;11.23;9.18;;;;;;;6.99;100.00;99044.00;5024417;28;20057;-78
2022/05/02 03:54:33;;;;;;;11.88;9.00;;;;;;;6.85;100.00;99027.41;5024849;28;20050;-78
2022/05/02 03:56:59;;;;;;;12.35;8.70;;;;;;;6.87;100.00;99047.00;5032666;28;20076;-78
2022/05/02 03:59:26;;;;;;;12.52;9.38;;;;;;;6.87;100.00;99051.56;5030236;28;20062;-78
2022/05/02 04:01:52;;;;;;;14.63;10.02;;;;;;;6.67;100.00;99029.34;5032569;28;20053;-78
2022/05/02 04:04:19;;;;;;;15.30;9.05;;;;;;;6.49;100.00;99041.09;5029033;28;20505;-78
2022/05/02 04:06:47;;;;;;;16.73;9.20;;;;;;;6.62;100.00;99042.50;5028441;28;20072;-78
2022/05/02 04:09:13;;;;;;;12.98;9.25;;;;;;;6.68;100.00;99048.09;5030931;28;20049;-78
2022/05/02 04:11:41;;;;;;;13.38;8.38;;;;;;;6.70;100.00;99062.31;5032374;28;20049;-78
2022/05/02 04:14:07;;;;;;;13.57;9.82;;;;;;;6.46;100.00;99049.53;5027349;28;20485;-78
2022/05/02 04:16:34;;;;;;;18.02;11.80;;;;;;;6.55;100.00;99042.31;5026162;28;20058;-78
2022/05/02 04:19:00;;;;;;;16.98;9.85;;;;;;;6.63;100.00;99058.56;5029049;28;20052;-78
2022/05/02 04:21:27;;;;;;;14.07;10.25;;;;;;;6.48;100.00;99038.56;5024343;28;20053;-78
2022/05/02 04:23:53;;;;;;;13.57;9.27;;;;;;;6.53;100.00;99058.69;5029167;28;20057;-78
2022/05/02 04:26:20;;;;;;;14.52;9.35;;;;;;;6.59;100.00;99065.28;5023121;28;20524;-78
2022/05/02 04:28:48;;;;;;;13.63;9.13;;;;;;;6.63;100.00;99066.66;5028982;28;20049;-78
2022/05/02 04:31:14;;;;;;;20.73;12.18;;;;;;;6.63;100.00;99050.44;5032022;28;20053;-78
2022/05/02 04:33:41;;;;;;;12.88;9.25;;;;;;;6.52;100.00;99054.28;5029257;28;20050;-78
2022/05/02 04:36:07;;;;;;;13.90;9.95;;;;;;;6.54;100.00;99052.25;5029545;28;20509;-76
2022/05/02 04:38:34;;;;;;;13.18;9.93;;;;;;;6.53;100.00;99049.72;5023291;28;20045;-77
2022/05/02 04:41:00;;;;;;;11.48;8.40;;;;;;;6.40;100.00;99049.31;5031242;28;20045;-78
2022/05/02 04:43:27;;;;;;;11.45;9.02;;;;;;;6.54;100.00;99063.06;5029948;28;20077;-78
2022/05/02 04:45:55;;;;;;;14.15;9.90;;;;;;;6.57;100.00;99051.09;5029830;28;20056;-77
2022/05/02 04:48:21;;;;;;;15.35;10.80;;;;;;;6.87;100.00;99065.06;5031517;28;20049;-78
2022/05/02 04:50:48;;;;;;;13.60;9.93;;;;;;;6.78;100.00;99039.88;5023201;28;20056;-78
2022/05/02 04:53:14;;;;;;;14.07;9.23;;;;;;;7.08;100.00;99062.75;5012515;28;20065;-78
2022/05/02 04:55:41;;;;;;;13.10;9.88;;;;;;;7.07;100.00;99050.25;5027963;28;20065;-78
2022/05/02 04:58:07;;;;;;;14.05;10.13;;;;;;;7.24;100.00;99063.81;5028152;28;20056;-78
2022/05/02 05:00:34;;;;;;;14.55;11.15;;;;;;;7.39;100.00;99067.56;5027874;28;20049;-78
2022/05/02 05:03:04;;;;;;;15.30;11.15;;;;;;;7.39;100.00;99058.59;5023083;28;20045;-78
2022/05/02 05:05:31;;;;;;;14.40;9.75;;;;;;;7.36;100.00;99059.78;5018753;28;20041;-78
2022/05/02 05:07:58;;;;;;;18.60;10.98;;;;;;;7.17;100.00;99041.16;5031510;28;20481;-78
2022/05/02 05:10:24;;;;;;;13.80;10.10;;;;;;;7.30;100.00;99060.47;5031404;28;20054;-78
2022/05/02 05:13:02;;;;;;;14.52;11.05;;;;;;;7.29;100.00;99045.25;5028620;28;20437;-78
2022/05/02 05:18:43;;;;;;;18.98;11.57;;;;;;;7.48;100.00;99048.63;5020334;28;20124;-78
2022/05/02 05:21:20;;;;;;;15.60;11.45;;;;;;;7.71;100.00;99071.31;5021737;28;20053;-78
2022/05/02 05:24:09;;;;;;;16.17;11.07;;;;;;;7.69;100.00;99062.50;5027961;28;20057;-78
2022/05/02 05:26:47;;;;;;;17.33;11.40;;;;;;;7.87;100.00;99061.50;5029145;28;20048;-78
2022/05/02 05:29:30;;;;;;;15.45;11.60;;;;;;;8.15;100.00;99056.56;5029223;28;20409;-78
2022/05/02 05:32:06;;;;;;;16.17;11.23;;;;;;;8.40;100.00;99038.41;5018130;28;20057;-79
2022/05/02 05:34:45;;;;;;;15.95;10.07;;;;;;;8.94;100.00;99058.53;5020300;28;20128;-79
2022/05/02 05:37:40;;;;;;;14.57;10.43;;;;;;;9.14;100.00;99053.53;5023326;28;20049;-78
2022/05/02 05:40:14;;;;;;;16.05;10.95;;;;;;;9.33;100.00;99027.78;5029554;28;20053;-78
2022/05/02 05:42:53;;;;;;;15.07;11.50;;;;;;;9.38;100.00;99033.53;5029575;28;20489;-78
2022/05/02 05:45:33;;;;;;;21.10;11.02;;;;;;;9.33;100.00;99050.34;5029627;28;20058;-78
2022/05/02 05:48:06;;;;;;;16.65;11.32;;;;;;;9.45;100.00;99058.91;5027515;28;20481;-78
2022/05/02 05:50:40;;;;;;;16.50;12.23;;;;;;;9.33;100.00;99058.50;5020124;28;20049;-78
2022/05/02 05:53:14;;;;;;;18.50;12.48;;;;;;;9.28;100.00;99044.59;5030426;28;20079;-79
2022/05/02 05:55:52;;;;;;;18.90;12.20;;;;;;;9.56;100.00;99052.22;5017946;28;20065;-78
2022/05/02 05:58:28;;;;;;;17.77;13.20;;;;;;;9.67;100.00;99037.38;5023848;28;20052;-78
2022/05/02 06:01:08;;;;;;;18.80;12.70;;;;;;;9.89;100.00;99043.78;5015360;28;20041;-78
2022/05/02 06:03:42;;;;;;;15.57;11.93;;;;;;;9.89;100.00;99017.50;5026229;28;20045;-78
2022/05/02 06:06:15;;;;;;;17.98;12.50;;;;;;;10.23;100.00;99048.72;5022222;28;20497;-78
2022/05/02 06:08:43;;;;;;;18.25;12.15;;;;;;;10.25;100.00;99034.94;5025417;28;20140;-78
2022/05/02 06:11:12;;;;;;;16.35;12.07;;;;;;;10.60;100.00;99038.84;5021188;28;20080;-79
2022/05/02 06:13:39;;;;;;;16.42;12.18;;;;;;;10.73;100.00;99029.19;5020614;28;20058;-78
2022/05/02 06:18:55;;;;;;;16.45;11.45;;;;;;;11.71;100.00;99048.69;5028317;28;20143;-78
2022/05/02 06:21:24;;;;;;;16.65;12.00;;;;;;;11.82;100.00;99031.81;5025732;28;20045;-78
2022/05/02 06:23:51;;;;;;;14.25;10.88;;;;;;;12.07;100.00;99049.66;5028600;28;20056;-79
2022/05/02 06:26:18;;;;;;;15.60;11.20;;;;;;;12.18;100.00;99025.44;5021749;28;20045;-79
2022/05/02 06:28:46;;;;;;;15.77;11.95;;;;;;;12.48;100.00;99048.88;5026739;28;20490;-79
2022/05/02 06:31:18;;;;;;;16.27;11.85;;;;;;;12.43;100.00;99029.59;5026790;28;20048;-79
2022/05/02 06:33:49;;;;;;;17.15;12.80;;;;;;;13.01;99.21;99035.53;5018693;28;20583;-79
2022/05/02 06:36:35;;;;;;;16.13;12.18;;;;;;;13.12;97.24;99023.19;5016444;28;20049;-79
2022/05/02 06:39:06;;;;;;;14.55;11.43;;;;;;;13.80;95.00;99057.81;5017665;28;20107;-79
2022/05/02 06:41:49;;;;;;;16.48;12.07;;;;;;;13.82;93.44;99033.88;5029948;28;20048;-79
2022/05/02 06:44:26;;;;;;;16.35;11.80;;;;;;;13.85;93.07;99051.72;5022944;28;20383;-79
2022/05/02 06:47:05;;;;;;;18.42;12.30;;;;;;;13.43;94.03;99030.03;5026504;28;20517;-79
2022/05/02 06:49:33;;;;;;;14.87;11.70;;;;;;;13.78;92.64;99043.53;5024820;28;20049;-79
2022/05/02 06:52:10;;;;;;;18.10;12.27;;;;;;;13.76;93.20;99024.63;5031069;28;20053;-79
2022/05/02 06:55:02;;;;;;;19.48;12.18;;;;;;;14.29;89.34;99033.84;5030421;28;20054;-79
2022/05/02 06:57:41;;;;;;;17.40;11.05;;;;;;;14.05;89.84;99025.25;5030459;28;20053;-79
2022/05/02 07:00:10;;;;;;;16.15;10.93;;;;;;;13.94;90.35;99050.47;5023187;28;20509;-79
2022/05/02 07:03:00;;;;;;;17.17;11.48;;;;;;;14.40;85.67;99021.44;5026808;28;20055;-79
2022/05/02 07:05:28;;;;;;;15.43;10.95;;;;;;;14.41;87.19;99054.03;5016353;28;20049;-79
2022/05/02 07:08:00;;;;;;;14.80;11.00;;;;;;;14.48;86.09;99049.41;5015882;28;20502;-78
2022/05/02 07:10:32;;;;;;;18.58;11.77;;;;;;;14.33;87.36;99052.38;5025441;28;20049;-79
2022/05/02 07:13:15;;;;;;;14.90;11.00;;;;;;;14.10;88.13;99041.00;5021956;28;20052;-79
2022/05/02 07:15:45;;;;;;;16.40;12.50;;;;;;;14.46;84.54;99020.56;5026967;28;20525;-78
2022/05/02 07:18:18;;;;;;;;;;;;;;;14.88;85.37;99045.75;5020085;28;20566;-78
2022/05/02 07:21:01;;;;;;;13.07;10.35;;;;;;;14.63;83.10;99042.84;5031107;28;20365;-79
2022/05/02 07:24:06;;;;;;;14.95;10.82;;;;;;;15.10;82.74;99035.34;5020818;28;20049;-79
2022/05/02 07:26:35;;;;;;;19.63;11.88;;;;;;;15.31;81.67;99028.72;5015731;28;20061;-79
2022/05/02 07:29:04;;;;;;;13.88;11.77;;;;;;;15.51;79.46;99038.72;5024104;28;20053;-78
2022/05/02 07:31:33;;;;;;;15.07;10.93;;;;;;;14.95;82.34;99049.31;5031896;28;20072;-78
2022/05/02 07:34:02;;;;;;;14.93;11.13;;;;;;;14.66;84.03;99035.06;5025625;28;20452;-78
2022/05/02 07:36:31;;;;;;;17.48;11.48;;;;;;;15.05;82.66;99032.41;5026943;28;20064;-79
2022/05/02 07:39:02;;;;;;;16.42;11.68;;;;;;;15.33;80.94;99044.91;5023941;28;20515;-79
2022/05/02 07:41:29;;;;;;;16.35;11.20;;;;;;;15.22;80.15;99043.72;5021272;28;20050;-79
2022/05/02 07:44:02;;;;;;;14.65;10.80;;;;;;;14.89;82.05;99044.69;5042652;28;20052;-78
2022/05/02 07:46:31;;;;;;;16.42;11.00;;;;;;;15.23;81.66;99042.63;5022962;28;20067;-79
2022/05/02 07:49:00;;;;;;;19.83;11.05;;;;;;;15.71;79.69;99030.34;5031623;28;20053;-79
2022/05/02 07:51:27;;;;;;;14.00;9.60;;;;;;;15.66;77.98;99044.72;5020088;28;20050;-79
2022/05/02 07:53:58;;;;;;;14.35;10.30;;;;;;;15.75;78.09;99042.56;5017579;28;20446;-79
2022/05/02 07:56:26;;;;;;;14.02;10.68;;;;;;;15.73;77.96;99039.19;5029993;28;20067;-79
2022/05/02 07:58:54;;;;;;;19.73;10.57;;;;;;;16.01;79.69;99014.13;5032386;28;20080;-79
2022/05/02 08:01:23;;;;;;;14.98;9.52;;;;;;;16.30;78.36;99038.34;5030830;28;20056;-79
2022/05/02 08:03:51;;;;;;;15.13;10.27;;;;;;;15.97;76.52;99033.97;5022104;28;20445;-79
2022/05/02 08:06:38;;;;;;;14.57;9.68;;;;;;;15.93;75.19;99031.69;5025981;28;20052;-79
2022/05/02 08:09:18;;;;;;;18.45;11.10;;;;;;;15.97;75.64;99044.94;5018462;28;20063;-79
2022/05/02 08:11:50;;;;;;;;;;;;;;;15.90;75.90;99045.00;5021894;28;20489;-79
2022/05/02 08:14:22;;;;;;;18.80;10.15;;;;;;;15.69;76.91;99035.22;5019933;28;19928;-79
2022/05/02 08:17:02;;;;;;;15.88;10.95;;;;;;;15.87;78.76;99035.31;5023844;28;20046;-79
2022/05/02 08:19:44;;;;;;;14.73;10.13;;;;;;;15.78;78.47;99031.19;5032396;28;20060;-79
2022/05/02 08:28:03;;;;;;;13.73;10.60;;;;;;;15.36;81.17;99020.66;5020372;28;20060;-79
2022/05/02 08:30:35;;;;;;;16.55;10.55;;;;;;;15.83;78.46;99020.38;5027702;28;20053;-79
2022/05/02 08:33:05;;;;;;;14.10;10.52;;;;;;;15.48;76.95;99020.81;5029838;28;20100;-79
2022/05/02 08:35:51;;;;;;;14.43;9.98;;;;;;;15.73;74.41;99030.94;5031164;28;20052;-79
2022/05/02 08:38:36;;;;;;;15.93;10.10;;;;;;;15.86;73.69;99032.81;5031127;28;20204;-79
2022/05/02 08:41:39;;;;;;;17.52;10.90;;;;;;;15.73;73.16;99011.78;5031337;28;20084;-79
2022/05/02 08:44:31;;;;;;;18.52;11.25;;;;;;;15.50;76.60;99031.53;5025765;28;20056;-79
2022/05/02 08:47:33;;;;;;;18.35;12.20;;;;;;;15.74;76.00;99019.78;5027188;28;20072;-79
2022/05/02 08:50:23;;;;;;;15.32;11.20;;;;;;;15.77;73.94;98996.56;5016623;28;20060;-79
2022/05/02 08:53:22;;;;;;;17.80;10.95;;;;;;;15.72;73.85;99005.47;5020136;28;20474;-79
2022/05/02 08:56:30;;;;;;;14.50;10.55;;;;;;;16.31;74.28;99015.34;5021523;28;20042;-78
2022/05/02 08:59:22;;;;;;;15.23;10.85;;;;;;;16.46;70.85;99015.81;5021504;28;20068;-79
2022/05/02 09:02:20;;;;;;;18.10;10.43;;;;;;;16.33;73.21;98999.47;5025234;28;20053;-79
2022/05/02 09:05:16;;;;;;;16.48;10.70;;;;;;;16.16;73.04;99016.50;5021995;28;20049;-79
2022/05/02 09:08:30;;;;;;;14.20;10.40;;;;;;;15.83;76.25;99001.19;5011617;28;20053;-79
2022/05/02 09:11:12;;;;;;;15.10;10.35;;;;;;;15.35;77.15;99016.22;5013248;28;20513;-79
2022/05/02 09:14:08;;;;;;;22.67;10.85;;;;;;;15.56;76.82;99017.78;5019714;28;20686;-79
2022/05/02 09:17:04;;;;;;;16.30;10.57;;;;;;;15.60;74.94;99022.81;5031887;28;20053;-79
2022/05/02 09:20:21;;;;;;;15.82;10.13;;;;;;;15.88;73.12;99025.19;5029914;28;20452;-79
2022/05/02 09:23:34;;;;;;;13.68;10.77;;;;;;;15.54;73.75;99021.81;4958673;28;20055;-79
2022/05/02 09:26:26;;;;;;;14.90;10.35;;;;;;;15.61;74.30;99014.41;4968427;28;20067;-79
2022/05/02 09:29:17;;;;;;;18.65;10.60;;;;;;;15.83;72.22;99012.16;5031347;28;20501;-79
2022/05/02 09:31:58;;;;;;;16.80;9.95;;;;;;;16.30;69.41;99009.00;5031248;28;20064;-79
2022/05/02 09:34:35;;;;;;;25.65;11.18;;;;;;;16.44;68.22;99009.72;5030834;28;20056;-79
2022/05/02 09:37:04;;;;;;;14.48;9.55;;;;;;;16.58;68.36;99013.97;5024221;28;20050;-79
2022/05/02 09:39:43;;;;;;;13.07;9.30;;;;;;;16.86;64.67;98992.56;5031021;28;20056;-79
2022/05/02 09:42:25;;;;;;;12.27;8.43;;;;;;;16.96;64.43;99004.69;5030072;28;20137;-80
2022/05/02 09:51:12;;;;;;;15.37;9.70;;;;;;;16.63;66.85;99008.66;5027365;28;20072;-79
2022/05/02 09:53:49;;;;;;;13.10;8.88;;;;;;;16.55;67.37;98999.88;5029369;28;20049;-79
2022/05/02 09:59:09;;;;;;;14.77;9.32;;;;;;;16.75;68.52;98986.75;5030688;28;20064;-80
2022/05/02 10:01:42;;;;;;;14.30;10.13;;;;;;;16.84;66.26;98984.53;5030795;28;20041;-79
2022/05/02 10:04:31;;;;;;;14.57;9.13;;;;;;;17.33;67.10;98993.66;5029512;28;20053;-80
2022/05/02 10:07:06;;;;;;;15.63;9.70;;;;;;;17.69;63.93;98991.84;5030036;28;20060;-80
2022/05/02 10:10:01;;;;;;;15.23;9.70;;;;;;;17.44;62.66;98981.00;5027571;28;20049;-79
2022/05/02 10:12:40;;;;;;;14.30;9.88;;;;;;;17.51;65.07;98967.19;5022636;28;20061;-79
2022/05/02 10:15:43;;;;;;;18.95;9.88;;;;;;;17.48;65.29;98968.50;5030312;28;20050;-79
2022/05/02 10:18:48;;;;;;;15.07;11.18;;;;;;;17.62;65.69;98971.88;5030550;28;20057;-79
2022/05/02 10:21:33;;;;;;;15.73;9.77;;;;;;;17.25;66.03;98968.41;5018187;28;20516;-79
2022/05/02 10:24:20;;;;;;;13.80;9.65;;;;;;;17.07;67.70;98972.91;5010095;28;20050;-79
2022/05/02 10:26:52;;;;;;;13.63;8.98;;;;;;;17.41;64.07;98973.25;5010460;28;20046;-80
2022/05/02 10:29:36;;;;;;;10.88;8.18;;;;;;;17.49;62.50;98958.31;5034568;28;20063;-79
2022/05/02 10:32:07;;;;;;;13.77;7.72;;;;;;;17.84;62.71;98961.16;5033602;28;20096;-80
2022/05/02 10:34:37;;;;;;;14.48;7.90;;;;;;;17.80;63.85;98959.13;5034034;28;20050;-80
2022/05/02 10:37:07;;;;;;;11.18;8.18;;;;;;;18.00;62.08;98958.78;5017059;28;20057;-80
2022/05/02 10:39:46;;;;;;;10.50;7.90;;;;;;;17.93;61.56;98964.44;5016456;28;20092;-80
2022/05/02 10:42:14;;;;;;;12.15;8.73;;;;;;;18.09;59.40;98957.34;5033708;28;20084;-79
2022/05/02 10:44:57;;;;;;;11.77;8.38;;;;;;;18.21;59.44;98960.13;5025290;28;20054;-79
2022/05/02 10:47:28;;;;;;;13.25;8.18;;;;;;;18.37;59.02;98959.38;5027606;28;20494;-79
2022/05/02 10:50:05;;;;;;;12.10;7.63;;;;;;;18.31;57.82;98945.75;5033883;28;20091;-80
2022/05/02 10:52:49;;;;;;;9.35;7.07;;;;;;;18.56;56.24;98943.56;5033446;28;20494;-79
2022/05/02 10:55:21;;;;;;;11.27;7.30;;;;;;;17.89;56.38;98940.38;5033940;28;20054;-79
2022/05/02 10:57:52;;;;;;;11.00;6.50;;;;;;;18.34;59.64;98937.03;5034244;28;20060;-79
2022/05/02 11:00:19;;;;;;;9.07;6.80;;;;;;;18.71;54.56;98947.72;5032708;28;20192;-79
2022/05/02 11:03:14;;;;;;;9.13;7.50;;;;;;;18.29;55.24;98932.25;5032989;28;20063;-79
2022/05/02 11:05:52;;;;;;;9.38;7.07;;;;;;;18.52;55.40;98919.53;5030131;28;20056;-79
2022/05/02 11:08:29;;;;;;;8.68;5.75;;;;;;;18.91;55.67;98926.13;5033740;28;20065;-79
2022/05/02 11:11:00;;;;;;;8.18;5.40;;;;;;;19.28;55.60;98935.91;5033776;28;20416;-79
2022/05/02 11:13:33;;;;;;;9.30;6.55;;;;;;;19.17;53.89;98925.78;5033185;28;20045;-79
2022/05/02 11:16:07;;;;;;;8.48;6.07;;;;;;;18.95;54.52;98920.13;5033525;28;20153;-80
2022/05/02 11:21:41;;;;;;;8.18;5.80;;;;;;;18.64;54.39;98917.56;5027430;28;20056;-80
2022/05/02 11:24:32;;;;;;;7.80;4.97;;;;;;;19.06;53.99;98924.78;5032948;28;20049;-80
2022/05/02 11:27:06;;;;;;;7.50;5.72;;;;;;;19.62;52.67;98924.94;5033392;28;20081;-80
2022/05/02 11:29:48;;;;;;;8.45;5.72;;;;;;;19.79;52.01;98922.19;5033062;28;20045;-80
2022/05/02 11:32:27;;;;;;;6.88;5.20;;;;;;;19.30;49.89;98905.34;5032805;28;20073;-79
2022/05/02 11:35:03;;;;;;;7.70;5.93;;;;;;;19.13;50.68;98903.38;5031168;28;20111;-80
2022/05/02 11:37:37;;;;;;;8.13;6.13;;;;;;;19.16;50.97;98918.59;5032620;28;20053;-80
2022/05/02 11:40:08;;;;;;;11.00;5.47;;;;;;;19.36;53.28;98894.16;5032368;28;20111;-80
2022/05/02 11:42:34;;;;;;;7.22;5.70;;;;;;;19.61;51.38;98917.72;5032859;28;20547;-80
2022/05/02 11:45:10;;;;;;;9.73;5.25;;;;;;;19.85;50.81;98893.59;5033049;28;20041;-80
2022/05/02 11:48:02;;;;;;;7.15;5.22;;;;;;;20.44;52.28;98917.06;5033582;28;20468;-80
2022/05/02 11:50:41;;;;;;;8.60;5.22;;;;;;;20.74;51.92;98902.00;5025815;28;20064;-80
2022/05/02 11:53:10;;;;;;;10.27;4.70;;;;;;;20.84;49.72;98911.25;5032072;28;20068;-80
2022/05/02 11:55:40;;;;;;;6.57;5.03;;;;;;;20.69;48.26;98905.56;5033209;28;20497;-81
2022/05/02 11:58:10;;;;;;;8.25;4.35;;;;;;;20.20;51.37;98894.38;5032990;28;20087;-80
2022/05/02 12:00:37;;;;;;;8.20;5.03;;;;;;;20.09;50.74;98908.03;5032777;28;20050;-80
2022/05/02 12:03:15;;;;;;;6.57;4.68;;;;;;;20.06;52.88;98889.22;5031813;28;20050;-80
2022/05/02 12:05:44;;;;;;;5.40;4.43;;;;;;;20.28;47.96;98869.13;5024391;28;20057;-80
2022/05/02 12:08:24;;;;;;;6.93;4.85;;;;;;;20.76;48.33;98900.69;5025840;28;20064;-80
2022/05/02 12:11:03;;;;;;;;;;;;;;;20.74;47.62;98899.25;5033943;28;20482;-80
2022/05/02 12:13:34;;;;;;;6.87;4.93;;;;;;;20.54;46.07;98891.53;5033019;28;19921;-80
2022/05/02 12:16:01;;;;;;;6.50;4.43;;;;;;;20.43;48.10;98887.78;5033148;28;20704;-80